sensor_id;sensor_type;location;lat;lon;timestamp;pressure;altitude;pressure_sealevel;temperature;humidity
69198;BME280;56311;50.298;8.514;2022-09-29T00:01:14;96234.00;;;5.41;100.00
69198;BME280;56311;50.298;8.514;2022-09-29T00:03:43;96237.78;;;5.40;100.00
69198;BME280;56311;50.298;8.514;2022-09-29T00:06:12;96236.19;;;5.39;100.00
69198;BME280;56311;50.298;8.514;2022-09-29T00:08:40;96240.97;;;5.42;100.00
69198;BME280;56311;50.298;8.514;2022-09-29T00:11:07;96243.66;;;5.42;100.00
69198;BME280;56311;50.298;8.514;2022-09-29T00:13:34;96242.44;;;5.35;100.00
69198;BME280;56311;50.298;8.514;2022-09-29T00:16:02;96238.44;;;5.32;100.00
69198;BME280;56311;50.298;8.514;2022-09-29T00:18:30;96243.31;;;5.30;100.00
69198;BME280;56311;50.298;8.514;2022-09-29T00:21:00;96246.47;;;5.32;100.00
69198;BME280;56311;50.298;8.514;2022-09-29T00:23:29;96246.47;;;5.32;100.00
69198;BME280;56311;50.298;8.514;2022-09-29T00:26:04;96236.44;;;5.24;100.00
69198;BME280;56311;50.298;8.514;2022-09-29T00:28:32;96245.03;;;5.21;100.00
69198;BME280;56311;50.298;8.514;2022-09-29T00:31:00;96246.34;;;5.23;100.00
69198;BME280;56311;50.298;8.514;2022-09-29T00:33:28;96251.00;;;5.18;100.00
69198;BME280;56311;50.298;8.514;2022-09-29T00:36:01;96250.06;;;5.08;100.00
69198;BME280;56311;50.298;8.514;2022-09-29T00:38:29;96254.22;;;4.96;100.00
69198;BME280;56311;50.298;8.514;2022-09-29T00:40:57;96255.25;;;5.00;100.00
69198;BME280;56311;50.298;8.514;2022-09-29T00:43:48;96245.91;;;4.97;100.00
69198;BME280;56311;50.298;8.514;2022-09-29T00:46:16;96254.22;;;4.96;100.00
69198;BME280;56311;50.298;8.514;2022-09-29T00:48:45;96249.72;;;4.91;100.00
69198;BME280;56311;50.298;8.514;2022-09-29T00:51:15;96246.50;;;4.94;100.00
69198;BME280;56311;50.298;8.514;2022-09-29T00:53:43;96247.56;;;4.93;100.00
69198;BME280;56311;50.298;8.514;2022-09-29T00:56:12;96242.22;;;4.93;100.00
69198;BME280;56311;50.298;8.514;2022-09-29T00:58:42;96244.81;;;4.98;100.00
69198;BME280;56311;50.298;8.514;2022-09-29T01:01:11;96242.13;;;4.98;100.00
69198;BME280;56311;50.298;8.514;2022-09-29T01:03:41;96242.13;;;4.98;100.00
69198;BME280;56311;50.298;8.514;2022-09-29T01:06:14;96242.09;;;5.03;100.00
69198;BME280;56311;50.298;8.514;2022-09-29T01:08:45;96230.78;;;5.06;100.00
69198;BME280;56311;50.298;8.514;2022-09-29T01:11:14;96228.38;;;5.05;100.00
69198;BME280;56311;50.298;8.514;2022-09-29T01:13:41;96235.91;;;5.03;100.00
69198;BME280;56311;50.298;8.514;2022-09-29T01:16:08;96221.72;;;5.02;100.00
69198;BME280;56311;50.298;8.514;2022-09-29T01:18:35;96227.44;;;4.96;100.00
69198;BME280;56311;50.298;8.514;2022-09-29T01:21:21;96227.28;;;4.87;100.00
69198;BME280;56311;50.298;8.514;2022-09-29T01:24:12;96223.56;;;4.83;100.00
69198;BME280;56311;50.298;8.514;2022-09-29T01:27:08;96218.00;;;4.79;100.00
69198;BME280;56311;50.298;8.514;2022-09-29T01:30:13;96223.56;;;4.83;100.00
69198;BME280;56311;50.298;8.514;2022-09-29T01:32:55;96226.91;;;4.74;100.00
69198;BME280;56311;50.298;8.514;2022-09-29T01:35:31;96230.03;;;4.57;100.00
69198;BME280;56311;50.298;8.514;2022-09-29T01:38:12;96225.81;;;4.51;100.00
69198;BME280;56311;50.298;8.514;2022-09-29T01:40:47;96227.50;;;4.47;100.00
69198;BME280;56311;50.298;8.514;2022-09-29T01:43:18;96237.47;;;4.41;100.00
69198;BME280;56311;50.298;8.514;2022-09-29T01:45:50;96238.31;;;4.37;100.00
69198;BME280;56311;50.298;8.514;2022-09-29T01:48:26;96235.69;;;4.32;100.00
69198;BME280;56311;50.298;8.514;2022-09-29T01:50:59;96240.75;;;4.33;100.00
69198;BME280;56311;50.298;8.514;2022-09-29T01:53:28;96238.13;;;4.28;100.00
69198;BME280;56311;50.298;8.514;2022-09-29T01:56:01;96242.19;;;4.25;100.00
69198;BME280;56311;50.298;8.514;2022-09-29T01:58:33;96244.94;;;4.20;100.00
69198;BME280;56311;50.298;8.514;2022-09-29T02:01:05;96244.69;;;4.17;100.00
69198;BME280;56311;50.298;8.514;2022-09-29T02:03:37;96235.91;;;4.11;100.00
69198;BME280;56311;50.298;8.514;2022-09-29T02:06:09;96241.56;;;4.09;100.00
69198;BME280;56311;50.298;8.514;2022-09-29T02:08:41;96239.44;;;4.06;100.00
69198;BME280;56311;50.298;8.514;2022-09-29T02:11:11;96241.59;;;4.04;100.00
69198;BME280;56311;50.298;8.514;2022-09-29T02:13:41;96241.34;;;4.01;100.00
69198;BME280;56311;50.298;8.514;2022-09-29T02:16:11;96241.69;;;3.94;100.00
69198;BME280;56311;50.298;8.514;2022-09-29T02:18:46;96241.78;;;3.83;100.00
69198;BME280;56311;50.298;8.514;2022-09-29T02:21:14;96243.66;;;3.83;100.00
69198;BME280;56311;50.298;8.514;2022-09-29T02:23:41;96242.91;;;3.77;100.00
69198;BME280;56311;50.298;8.514;2022-09-29T02:26:09;96246.09;;;3.79;100.00
69198;BME280;56311;50.298;8.514;2022-09-29T02:28:36;96249.09;;;3.73;100.00
69198;BME280;56311;50.298;8.514;2022-09-29T02:31:04;96242.66;;;3.74;100.00
69198;BME280;56311;50.298;8.514;2022-09-29T02:33:33;96247.78;;;3.70;100.00
69198;BME280;56311;50.298;8.514;2022-09-29T02:36:11;96247.53;;;3.66;100.00
69198;BME280;56311;50.298;8.514;2022-09-29T02:38:44;96249.31;;;3.76;100.00
69198;BME280;56311;50.298;8.514;2022-09-29T02:41:26;96244.84;;;3.66;100.00
69198;BME280;56311;50.298;8.514;2022-09-29T02:44:09;96248.66;;;3.60;100.00
69198;BME280;56311;50.298;8.514;2022-09-29T02:46:53;96249.19;;;3.57;100.00
69198;BME280;56311;50.298;8.514;2022-09-29T02:49:32;96251.63;;;3.54;100.00
69198;BME280;56311;50.298;8.514;2022-09-29T02:52:09;96246.81;;;3.56;100.00
69198;BME280;56311;50.298;8.514;2022-09-29T02:54:51;96255.38;;;3.58;100.00
69198;BME280;56311;50.298;8.514;2022-09-29T02:57:25;96251.38;;;3.55;100.00
69198;BME280;56311;50.298;8.514;2022-09-29T02:59:59;96259.63;;;3.59;100.00
69198;BME280;56311;50.298;8.514;2022-09-29T03:02:32;96258.31;;;3.56;100.00
69198;BME280;56311;50.298;8.514;2022-09-29T03:04:59;96262.91;;;3.50;100.00
69198;BME280;56311;50.298;8.514;2022-09-29T03:07:27;96260.75;;;3.53;100.00
69198;BME280;56311;50.298;8.514;2022-09-29T03:09:54;96249.50;;;3.56;100.00
69198;BME280;56311;50.298;8.514;2022-09-29T03:12:20;96252.81;;;3.42;100.00
69198;BME280;56311;50.298;8.514;2022-09-29T03:14:47;96256.00;;;3.44;100.00
69198;BME280;56311;50.298;8.514;2022-09-29T03:17:14;96245.31;;;3.44;100.00
69198;BME280;56311;50.298;8.514;2022-09-29T03:19:41;96252.25;;;3.45;100.00
69198;BME280;56311;50.298;8.514;2022-09-29T03:22:07;96254.41;;;3.43;100.00
69198;BME280;56311;50.298;8.514;2022-09-29T03:24:35;96253.63;;;3.43;100.00
69198;BME280;56311;50.298;8.514;2022-09-29T03:27:02;96258.16;;;3.42;100.00
69198;BME280;56311;50.298;8.514;2022-09-29T03:29:30;96248.75;;;3.50;100.00
69198;BME280;56311;50.298;8.514;2022-09-29T03:31:57;96256.53;;;3.46;100.00
69198;BME280;56311;50.298;8.514;2022-09-29T03:34:24;96255.50;;;3.37;100.00
69198;BME280;56311;50.298;8.514;2022-09-29T03:36:51;96256.00;;;3.44;100.00
69198;BME280;56311;50.298;8.514;2022-09-29T03:39:17;96255.22;;;3.39;100.00
69198;BME280;56311;50.298;8.514;2022-09-29T03:41:46;96262.72;;;3.37;100.00
69198;BME280;56311;50.298;8.514;2022-09-29T03:44:13;96265.16;;;3.33;100.00
69198;BME280;56311;50.298;8.514;2022-09-29T03:46:40;96260.66;;;3.28;100.00
69198;BME280;56311;50.298;8.514;2022-09-29T03:49:09;96263.34;;;3.28;100.00
69198;BME280;56311;50.298;8.514;2022-09-29T03:51:36;96266.25;;;3.27;100.00
69198;BME280;56311;50.298;8.514;2022-09-29T03:54:03;96263.63;;;3.22;100.00
69198;BME280;56311;50.298;8.514;2022-09-29T03:56:30;96265.22;;;3.23;100.00
69198;BME280;56311;50.298;8.514;2022-09-29T03:58:59;96271.69;;;3.16;100.00
69198;BME280;56311;50.298;8.514;2022-09-29T04:01:26;96271.97;;;3.10;100.00
69198;BME280;56311;50.298;8.514;2022-09-29T04:03:52;96266.91;;;3.08;100.00
69198;BME280;56311;50.298;8.514;2022-09-29T04:06:19;96270.63;;;3.12;100.00
69198;BME280;56311;50.298;8.514;2022-09-29T04:08:46;96278.38;;;3.09;100.00
69198;BME280;56311;50.298;8.514;2022-09-29T04:11:15;96275.75;;;3.03;100.00
69198;BME280;56311;50.298;8.514;2022-09-29T04:13:41;96276.28;;;3.06;100.00
69198;BME280;56311;50.298;8.514;2022-09-29T04:16:10;96280.03;;;3.05;100.00
69198;BME280;56311;50.298;8.514;2022-09-29T04:18:37;96284.31;;;3.06;100.00
69198;BME280;56311;50.298;8.514;2022-09-29T04:21:05;96284.31;;;3.06;100.00
69198;BME280;56311;50.298;8.514;2022-09-29T04:23:32;96273.28;;;3.12;100.00
69198;BME280;56311;50.298;8.514;2022-09-29T04:25:58;96274.91;;;3.13;100.00
69198;BME280;56311;50.298;8.514;2022-09-29T04:28:29;96282.38;;;3.16;100.00
69198;BME280;56311;50.298;8.514;2022-09-29T04:30:56;96292.25;;;3.21;100.00
69198;BME280;56311;50.298;8.514;2022-09-29T04:33:24;96288.22;;;3.24;100.00
69198;BME280;56311;50.298;8.514;2022-09-29T04:35:51;96292.44;;;3.30;100.00
69198;BME280;56311;50.298;8.514;2022-09-29T04:38:18;96293.25;;;3.30;100.00
69198;BME280;56311;50.298;8.514;2022-09-29T04:40:46;96293.47;;;3.39;100.00
69198;BME280;56311;50.298;8.514;2022-09-29T04:43:13;96294.22;;;3.45;100.00
69198;BME280;56311;50.298;8.514;2022-09-29T04:45:40;96298.53;;;3.41;100.00
69198;BME280;56311;50.298;8.514;2022-09-29T04:48:07;96296.66;;;3.41;100.00
69198;BME280;56311;50.298;8.514;2022-09-29T04:50:35;96299.31;;;3.41;100.00
69198;BME280;56311;50.298;8.514;2022-09-29T04:53:02;96300.38;;;3.45;100.00
69198;BME280;56311;50.298;8.514;2022-09-29T04:55:29;96291.53;;;3.45;100.00
69198;BME280;56311;50.298;8.514;2022-09-29T04:57:56;96283.22;;;3.52;100.00
69198;BME280;56311;50.298;8.514;2022-09-29T05:00:22;96290.97;;;3.53;100.00
69198;BME280;56311;50.298;8.514;2022-09-29T05:02:49;96299.50;;;3.55;100.00
69198;BME280;56311;50.298;8.514;2022-09-29T05:05:16;96298.69;;;3.60;100.00
69198;BME280;56311;50.298;8.514;2022-09-29T05:07:45;96294.66;;;3.57;100.00
69198;BME280;56311;50.298;8.514;2022-09-29T05:10:11;96303.50;;;3.58;100.00
69198;BME280;56311;50.298;8.514;2022-09-29T05:12:38;96300.00;;;3.62;100.00
69198;BME280;56311;50.298;8.514;2022-09-29T05:15:06;96300.25;;;3.66;100.00
69198;BME280;56311;50.298;8.514;2022-09-29T05:17:33;96298.88;;;3.69;100.00
69198;BME280;56311;50.298;8.514;2022-09-29T05:20:00;96302.31;;;3.74;100.00
69198;BME280;56311;50.298;8.514;2022-09-29T05:22:27;96305.50;;;3.76;100.00
69198;BME280;56311;50.298;8.514;2022-09-29T05:24:56;96300.91;;;3.82;100.00
69198;BME280;56311;50.298;8.514;2022-09-29T05:27:23;96309.97;;;3.86;100.00
69198;BME280;56311;50.298;8.514;2022-09-29T05:29:50;96306.47;;;3.91;100.00
69198;BME280;56311;50.298;8.514;2022-09-29T05:32:17;96314.47;;;3.96;100.00
69198;BME280;56311;50.298;8.514;2022-09-29T05:34:44;96306.91;;;4.03;100.00
69198;BME280;56311;50.298;8.514;2022-09-29T05:37:11;96303.66;;;4.06;100.00
69198;BME280;56311;50.298;8.514;2022-09-29T05:39:38;96304.72;;;4.10;100.00
69198;BME280;56311;50.298;8.514;2022-09-29T05:42:09;96308.47;;;4.09;100.00
69198;BME280;56311;50.298;8.514;2022-09-29T05:44:37;96307.09;;;4.12;100.00
69198;BME280;56311;50.298;8.514;2022-09-29T05:47:04;96315.88;;;4.18;100.00
69198;BME280;56311;50.298;8.514;2022-09-29T05:49:31;96311.56;;;4.22;100.00
69198;BME280;56311;50.298;8.514;2022-09-29T05:51:59;96306.50;;;4.20;100.00
69198;BME280;56311;50.298;8.514;2022-09-29T05:54:26;96318.47;;;4.28;100.00
69198;BME280;56311;50.298;8.514;2022-09-29T05:56:53;96312.81;;;4.29;100.00
69198;BME280;56311;50.298;8.514;2022-09-29T05:59:21;96314.38;;;4.36;100.00
69198;BME280;56311;50.298;8.514;2022-09-29T06:01:48;96313.28;;;4.37;100.00
69198;BME280;56311;50.298;8.514;2022-09-29T06:04:16;96309.03;;;4.36;100.00
69198;BME280;56311;50.298;8.514;2022-09-29T06:06:43;96311.34;;;4.42;100.00
69198;BME280;56311;50.298;8.514;2022-09-29T06:09:10;96323.06;;;4.52;100.00
69198;BME280;56311;50.298;8.514;2022-09-29T06:11:37;96314.44;;;4.55;100.00
69198;BME280;56311;50.298;8.514;2022-09-29T06:14:04;96320.03;;;4.58;100.00
69198;BME280;56311;50.298;8.514;2022-09-29T06:16:32;96316.72;;;4.67;100.00
69198;BME280;56311;50.298;8.514;2022-09-29T06:19:01;96319.13;;;4.68;100.00
69198;BME280;56311;50.298;8.514;2022-09-29T06:21:29;96318.41;;;4.62;100.00
69198;BME280;56311;50.298;8.514;2022-09-29T06:23:57;96314.13;;;4.61;100.00
69198;BME280;56311;50.298;8.514;2022-09-29T06:26:25;96318.56;;;4.71;100.00
69198;BME280;56311;50.298;8.514;2022-09-29T06:28:52;96314.97;;;4.81;100.00
69198;BME280;56311;50.298;8.514;2022-09-29T06:31:20;96329.28;;;4.96;100.00
69198;BME280;56311;50.298;8.514;2022-09-29T06:33:50;96328.13;;;5.02;100.00
69198;BME280;56311;50.298;8.514;2022-09-29T06:36:18;96327.72;;;5.14;100.00
69198;BME280;56311;50.298;8.514;2022-09-29T06:39:05;96329.41;;;5.29;100.00
69198;BME280;56311;50.298;8.514;2022-09-29T06:41:32;96330.44;;;5.33;100.00
69198;BME280;56311;50.298;8.514;2022-09-29T06:44:01;96326.81;;;5.42;100.00
69198;BME280;56311;50.298;8.514;2022-09-29T06:46:28;96335.28;;;5.50;100.00
69198;BME280;56311;50.298;8.514;2022-09-29T06:48:57;96342.78;;;5.53;100.00
69198;BME280;56311;50.298;8.514;2022-09-29T06:51:26;96341.88;;;5.57;100.00
69198;BME280;56311;50.298;8.514;2022-09-29T06:54:08;96343.88;;;5.71;100.00
69198;BME280;56311;50.298;8.514;2022-09-29T06:56:38;96334.25;;;5.84;100.00
69198;BME280;56311;50.298;8.514;2022-09-29T06:59:05;96332.81;;;5.92;100.00
69198;BME280;56311;50.298;8.514;2022-09-29T07:01:32;96332.69;;;6.02;100.00
69198;BME280;56311;50.298;8.514;2022-09-29T07:04:01;96333.03;;;6.14;100.00
69198;BME280;56311;50.298;8.514;2022-09-29T07:06:31;96336.75;;;6.32;100.00
69198;BME280;56311;50.298;8.514;2022-09-29T07:08:58;96333.78;;;6.48;100.00
69198;BME280;56311;50.298;8.514;2022-09-29T07:11:26;96331.94;;;6.62;100.00
69198;BME280;56311;50.298;8.514;2022-09-29T07:13:56;96334.75;;;6.71;100.00
69198;BME280;56311;50.298;8.514;2022-09-29T07:16:23;96336.81;;;6.74;100.00
69198;BME280;56311;50.298;8.514;2022-09-29T07:18:51;96340.91;;;6.72;100.00
69198;BME280;56311;50.298;8.514;2022-09-29T07:21:20;96331.66;;;6.78;100.00
69198;BME280;56311;50.298;8.514;2022-09-29T07:23:48;96335.25;;;6.87;100.00
69198;BME280;56311;50.298;8.514;2022-09-29T07:26:16;96331.16;;;7.04;100.00
69198;BME280;56311;50.298;8.514;2022-09-29T07:28:44;96339.72;;;7.20;100.00
69198;BME280;56311;50.298;8.514;2022-09-29T07:31:12;96338.00;;;7.24;100.00
69198;BME280;56311;50.298;8.514;2022-09-29T07:33:41;96337.19;;;7.37;100.00
69198;BME280;56311;50.298;8.514;2022-09-29T07:36:08;96345.38;;;7.46;100.00
69198;BME280;56311;50.298;8.514;2022-09-29T07:38:37;96345.84;;;7.48;100.00
69198;BME280;56311;50.298;8.514;2022-09-29T07:41:06;96346.53;;;7.68;100.00
69198;BME280;56311;50.298;8.514;2022-09-29T07:43:33;96347.38;;;7.77;100.00
69198;BME280;56311;50.298;8.514;2022-09-29T07:46:00;96343.59;;;7.78;100.00
69198;BME280;56311;50.298;8.514;2022-09-29T07:48:29;96353.03;;;7.89;100.00
69198;BME280;56311;50.298;8.514;2022-09-29T07:51:01;96344.09;;;8.03;100.00
69198;BME280;56311;50.298;8.514;2022-09-29T07:53:28;96348.94;;;8.15;100.00
69198;BME280;56311;50.298;8.514;2022-09-29T07:56:01;62402.38;;;-147.88;100.00
69198;BME280;56311;50.298;8.514;2022-09-29T07:58:30;96350.28;;;8.71;100.00
69198;BME280;56311;50.298;8.514;2022-09-29T08:00:59;96355.28;;;8.96;100.00
69198;BME280;56311;50.298;8.514;2022-09-29T08:03:27;96349.78;;;9.10;100.00
69198;BME280;56311;50.298;8.514;2022-09-29T08:05:56;96348.69;;;9.19;100.00
69198;BME280;56311;50.298;8.514;2022-09-29T08:08:27;96350.78;;;9.31;100.00
69198;BME280;56311;50.298;8.514;2022-09-29T08:11:02;96357.13;;;9.27;100.00
69198;BME280;56311;50.298;8.514;2022-09-29T08:13:32;96360.22;;;9.51;99.41
69198;BME280;56311;50.298;8.514;2022-09-29T08:16:01;96369.09;;;9.43;97.55
69198;BME280;56311;50.298;8.514;2022-09-29T08:18:30;62402.38;;;-147.88;100.00
69198;BME280;56311;50.298;8.514;2022-09-29T08:20:57;62402.38;;;-147.88;100.00
69198;BME280;56311;50.298;8.514;2022-09-29T08:23:29;62402.38;;;-147.88;100.00
69198;BME280;56311;50.298;8.514;2022-09-29T08:26:03;62402.38;;;-147.88;100.00
69198;BME280;56311;50.298;8.514;2022-09-29T08:28:31;62402.38;;;-147.88;100.00
69198;BME280;56311;50.298;8.514;2022-09-29T08:31:02;62402.38;;;-147.88;100.00
69198;BME280;56311;50.298;8.514;2022-09-29T08:33:30;96381.53;;;10.58;92.62
69198;BME280;56311;50.298;8.514;2022-09-29T08:35:58;96380.28;;;10.20;92.65
69198;BME280;56311;50.298;8.514;2022-09-29T08:38:26;96388.06;;;9.96;93.66
69198;BME280;56311;50.298;8.514;2022-09-29T08:40:55;96386.31;;;10.00;96.12
69198;BME280;56311;50.298;8.514;2022-09-29T08:43:28;96389.50;;;10.02;93.87
69198;BME280;56311;50.298;8.514;2022-09-29T08:46:05;96383.75;;;9.86;91.63
69198;BME280;56311;50.298;8.514;2022-09-29T08:48:40;96387.88;;;9.83;93.36
69198;BME280;56311;50.298;8.514;2022-09-29T08:51:27;96387.25;;;9.95;93.00
69198;BME280;56311;50.298;8.514;2022-09-29T08:54:15;96395.22;;;10.27;93.50
69198;BME280;56311;50.298;8.514;2022-09-29T08:57:01;96388.88;;;10.49;92.85
69198;BME280;56311;50.298;8.514;2022-09-29T08:59:33;96397.78;;;10.41;93.14
69198;BME280;56311;50.298;8.514;2022-09-29T09:02:20;96404.28;;;10.48;94.19
69198;BME280;56311;50.298;8.514;2022-09-29T09:07:57;96404.44;;;10.08;94.76
69198;BME280;56311;50.298;8.514;2022-09-29T09:10:39;96405.56;;;9.98;96.70
69198;BME280;56311;50.298;8.514;2022-09-29T09:13:23;96403.47;;;9.86;97.03
69198;BME280;56311;50.298;8.514;2022-09-29T09:16:15;96405.50;;;9.72;97.44
69198;BME280;56311;50.298;8.514;2022-09-29T09:19:04;96409.97;;;9.68;96.34
69198;BME280;56311;50.298;8.514;2022-09-29T09:21:39;96413.91;;;9.62;97.86
69198;BME280;56311;50.298;8.514;2022-09-29T09:24:23;96411.50;;;9.51;98.82
69198;BME280;56311;50.298;8.514;2022-09-29T09:26:57;62402.38;;;-147.88;100.00
69198;BME280;56311;50.298;8.514;2022-09-29T09:29:29;62402.38;;;-147.88;100.00
69198;BME280;56311;50.298;8.514;2022-09-29T09:32:07;62402.38;;;-147.88;100.00
69198;BME280;56311;50.298;8.514;2022-09-29T09:34:41;62402.38;;;-147.88;100.00
69198;BME280;56311;50.298;8.514;2022-09-29T09:37:15;62402.38;;;-147.88;100.00
69198;BME280;56311;50.298;8.514;2022-09-29T09:39:47;62402.38;;;-147.88;100.00
69198;BME280;56311;50.298;8.514;2022-09-29T09:42:26;62402.38;;;-147.88;100.00
69198;BME280;56311;50.298;8.514;2022-09-29T09:44:56;96413.94;;;9.97;95.58
69198;BME280;56311;50.298;8.514;2022-09-29T09:47:28;96421.13;;;10.01;96.50
69198;BME280;56311;50.298;8.514;2022-09-29T09:50:00;96422.09;;;10.06;94.64
69198;BME280;56311;50.298;8.514;2022-09-29T09:52:36;96420.50;;;10.13;91.13
69198;BME280;56311;50.298;8.514;2022-09-29T09:55:12;96423.69;;;10.07;91.45
69198;BME280;56311;50.298;8.514;2022-09-29T09:58:07;96419.38;;;10.14;92.68
69198;BME280;56311;50.298;8.514;2022-09-29T10:00:41;96420.19;;;10.32;91.10
69198;BME280;56311;50.298;8.514;2022-09-29T10:03:11;96422.75;;;10.46;91.32
69198;BME280;56311;50.298;8.514;2022-09-29T10:05:42;96420.38;;;10.54;90.66
69198;BME280;56311;50.298;8.514;2022-09-29T10:08:15;96425.13;;;10.48;88.54
69198;BME280;56311;50.298;8.514;2022-09-29T10:10:44;62402.38;;;-147.88;100.00
69198;BME280;56311;50.298;8.514;2022-09-29T10:13:25;96423.34;;;10.70;86.68
69198;BME280;56311;50.298;8.514;2022-09-29T10:15:55;96429.38;;;10.84;87.63
69198;BME280;56311;50.298;8.514;2022-09-29T10:18:29;96429.84;;;10.95;84.78
69198;BME280;56311;50.298;8.514;2022-09-29T10:21:00;96435.53;;;10.93;83.58
69198;BME280;56311;50.298;8.514;2022-09-29T10:23:32;96438.88;;;10.99;81.76
69198;BME280;56311;50.298;8.514;2022-09-29T10:26:10;96433.91;;;11.10;84.04
69198;BME280;56311;50.298;8.514;2022-09-29T10:28:41;96437.59;;;11.14;81.81
69198;BME280;56311;50.298;8.514;2022-09-29T10:31:24;96431.50;;;11.17;85.07
69198;BME280;56311;50.298;8.514;2022-09-29T10:33:56;96437.78;;;11.00;84.27
69198;BME280;56311;50.298;8.514;2022-09-29T10:36:25;96432.50;;;11.04;87.09
69198;BME280;56311;50.298;8.514;2022-09-29T10:38:55;96439.38;;;11.01;84.75
69198;BME280;56311;50.298;8.514;2022-09-29T10:41:28;96443.19;;;11.00;85.72
69198;BME280;56311;50.298;8.514;2022-09-29T10:44:17;96444.31;;;10.90;86.41
69198;BME280;56311;50.298;8.514;2022-09-29T10:46:51;96451.34;;;10.74;85.52
69198;BME280;56311;50.298;8.514;2022-09-29T10:49:22;96453.13;;;10.70;86.94
69198;BME280;56311;50.298;8.514;2022-09-29T10:51:58;96454.22;;;10.69;86.72
69198;BME280;56311;50.298;8.514;2022-09-29T10:54:29;96454.88;;;10.48;85.24
69198;BME280;56311;50.298;8.514;2022-09-29T10:56:58;96453.75;;;10.40;90.75
69198;BME280;56311;50.298;8.514;2022-09-29T10:59:27;96458.81;;;10.33;97.13
69198;BME280;56311;50.298;8.514;2022-09-29T11:01:56;96449.75;;;10.20;98.65
69198;BME280;56311;50.298;8.514;2022-09-29T11:04:28;96455.50;;;10.27;98.67
69198;BME280;56311;50.298;8.514;2022-09-29T11:07:05;96460.72;;;10.32;97.15
69198;BME280;56311;50.298;8.514;2022-09-29T11:09:37;96461.06;;;10.31;96.89
69198;BME280;56311;50.298;8.514;2022-09-29T11:12:24;96469.78;;;10.19;99.81
69198;BME280;56311;50.298;8.514;2022-09-29T11:14:52;96471.06;;;10.22;100.00
69198;BME280;56311;50.298;8.514;2022-09-29T11:17:21;96473.28;;;10.19;100.00
69198;BME280;56311;50.298;8.514;2022-09-29T11:19:52;96473.81;;;10.39;100.00
69198;BME280;56311;50.298;8.514;2022-09-29T11:22:43;96471.88;;;10.48;99.49
69198;BME280;56311;50.298;8.514;2022-09-29T11:25:25;96480.00;;;10.40;94.50
69198;BME280;56311;50.298;8.514;2022-09-29T11:28:17;96479.84;;;10.45;92.62
69198;BME280;56311;50.298;8.514;2022-09-29T11:30:56;96478.41;;;10.65;92.02
69198;BME280;56311;50.298;8.514;2022-09-29T11:33:38;96479.06;;;10.71;90.60
69198;BME280;56311;50.298;8.514;2022-09-29T11:36:17;96479.06;;;10.71;90.60
69198;BME280;56311;50.298;8.514;2022-09-29T11:38:55;96479.50;;;10.90;86.80
69198;BME280;56311;50.298;8.514;2022-09-29T11:41:46;96481.72;;;10.88;89.71
69198;BME280;56311;50.298;8.514;2022-09-29T11:44:30;96479.31;;;10.95;88.27
69198;BME280;56311;50.298;8.514;2022-09-29T11:47:12;96476.13;;;10.93;86.30
69198;BME280;56311;50.298;8.514;2022-09-29T11:49:57;96481.84;;;11.09;87.38
69198;BME280;56311;50.298;8.514;2022-09-29T11:52:49;96478.03;;;11.10;89.34
69198;BME280;56311;50.298;8.514;2022-09-29T11:55:43;96479.63;;;11.03;89.83
69198;BME280;56311;50.298;8.514;2022-09-29T11:58:24;96473.72;;;11.09;89.18
69198;BME280;56311;50.298;8.514;2022-09-29T12:01:08;96481.03;;;11.18;89.43
69198;BME280;56311;50.298;8.514;2022-09-29T12:03:42;96478.78;;;11.20;90.83
69198;BME280;56311;50.298;8.514;2022-09-29T12:06:34;96478.16;;;11.23;91.29
69198;BME280;56311;50.298;8.514;2022-09-29T12:09:13;96474.97;;;11.21;90.59
69198;BME280;56311;50.298;8.514;2022-09-29T12:11:50;96475.97;;;11.07;90.15
69198;BME280;56311;50.298;8.514;2022-09-29T12:14:57;96470.53;;;11.07;89.62
69198;BME280;56311;50.298;8.514;2022-09-29T12:17:27;96474.88;;;10.99;88.79
69198;BME280;56311;50.298;8.514;2022-09-29T12:20:00;96471.31;;;11.17;91.18
69198;BME280;56311;50.298;8.514;2022-09-29T12:22:28;96477.41;;;11.05;90.72
69198;BME280;56311;50.298;8.514;2022-09-29T12:25:03;96475.50;;;10.96;91.14
69198;BME280;56311;50.298;8.514;2022-09-29T12:27:34;96485.38;;;11.01;90.89
69198;BME280;56311;50.298;8.514;2022-09-29T12:30:04;96475.66;;;11.00;91.86
69198;BME280;56311;50.298;8.514;2022-09-29T12:32:34;96477.28;;;10.83;92.36
69198;BME280;56311;50.298;8.514;2022-09-29T12:35:08;96481.56;;;10.85;93.04
69198;BME280;56311;50.298;8.514;2022-09-29T12:37:40;96483.78;;;10.82;93.45
69198;BME280;56311;50.298;8.514;2022-09-29T12:40:16;96490.16;;;10.87;94.63
69198;BME280;56311;50.298;8.514;2022-09-29T12:43:02;96487.41;;;11.04;94.11
69198;BME280;56311;50.298;8.514;2022-09-29T12:45:36;62402.38;;;-147.88;100.00
69198;BME280;56311;50.298;8.514;2022-09-29T12:48:16;62402.38;;;-147.88;100.00
69198;BME280;56311;50.298;8.514;2022-09-29T12:50:50;62402.38;;;-147.88;100.00
69198;BME280;56311;50.298;8.514;2022-09-29T12:53:24;62402.38;;;-147.88;100.00
69198;BME280;56311;50.298;8.514;2022-09-29T12:55:57;62402.38;;;-147.88;100.00
69198;BME280;56311;50.298;8.514;2022-09-29T12:58:34;62402.38;;;-147.88;100.00
69198;BME280;56311;50.298;8.514;2022-09-29T13:01:18;62402.38;;;-147.88;100.00
69198;BME280;56311;50.298;8.514;2022-09-29T13:04:12;62402.38;;;-147.88;100.00
69198;BME280;56311;50.298;8.514;2022-09-29T13:07:03;62402.38;;;-147.88;100.00
69198;BME280;56311;50.298;8.514;2022-09-29T13:10:01;62402.38;;;-147.88;100.00
69198;BME280;56311;50.298;8.514;2022-09-29T13:12:52;62402.38;;;-147.88;100.00
69198;BME280;56311;50.298;8.514;2022-09-29T13:15:37;62402.38;;;-147.88;100.00
69198;BME280;56311;50.298;8.514;2022-09-29T13:18:30;62402.38;;;-147.88;100.00
69198;BME280;56311;50.298;8.514;2022-09-29T13:21:10;62402.38;;;-147.88;100.00
69198;BME280;56311;50.298;8.514;2022-09-29T13:24:05;62402.38;;;-147.88;100.00
69198;BME280;56311;50.298;8.514;2022-09-29T13:26:47;62402.38;;;-147.88;100.00
69198;BME280;56311;50.298;8.514;2022-09-29T13:29:20;96480.00;;;12.72;88.05